Ithaca, Nebraska
Current Conditions -  °F | °C
As of 8:55 AM on Wednesday 26 Nov 2014 (Local Time) from KAHQ Reporting Station
Overcast Overcast  
Wind Chill: 21°   Ceiling: 1300
Heat Index: 35°   Visibility: 10mi
Dew Point: 30°   Wind: 30mph
Humidity: 84%   Direction: 320°NW
Pressure: 29.99"   Gusts: 40mph
Location:  41.16°N, 96.54°W
Report Text: KAHQ 261455Z AUTO 32026G35KT 10SM OVC013 02/M01 A2999 RMK AO2 T00151010
Loading
Personal Weather Stations






























Interactive Weather Map New forecast layout! Learn more

10-Day Weather Forecast

Advertisements
Track Severe Weather on mobile